Airfield :
LOGIN :

Register | Disclaimer

   EN    FR    IT 

 










Legend :    VFR   Marginal VFR   IFR   Intensive IFR   Very Intensive IFR
Visi :
Ceiling :
>= 8 km
>= 3000ft
5 to 8 km
1000 to 3000 ft
1500m to 5 km
500 to 1000 ft
800 to 1500m
200 to 500 ft
< 800m
< 200 ft
Symbols :   Thunderstorms  Fog  Heavy snow  Heavy precipitations  Wind > 20 kt
SIGMETs :     Misc.  Thunderstorms  Icing  Turbulence  Mountain Waves  Volcanic Ashes






- Airport Elevation : 768 ft
- IATA code : MXP


LIMC - Milano Malpensa

CURRENT METAR :
  • 170320Z 28004KT 9999 R35R/0700D R17L/1100U R35L/P1500N BCFG SCT090 11/11 Q1004 NOSIG

EXPIRED METARs :
  • 170250Z 36003KT 9999 R35R/P1500N R17L/1000U R35L/P1500N BCFG NSC 10/10 Q1004 NOSIG
  • 170220Z 32002KT 9999 R35R/0450U R17L/0550N R35L/P1500N BCFG NSC 11/11 Q1004 NOSIG
  • 170150Z VRB02KT 9999 R35R/0350N R17L/0700U R35L/1000U BCFG NSC 11/11 Q1003 NOSIG
  • 170120Z VRB02KT 9999 R35R/1300D R17L/1300D R35L/0550D BCFG NSC 11/11 Q1003 NOSIG
  • 170050Z 34005KT 5000 BR NSC 12/12 Q1004 NOSIG

TAF AMD TAF LIMC
Valid from the 17 at 01:00 until the 18 at 06:00 UTC


170106Z 1701/1806 VRB05KT 9999 FEW030
TEMPO 1701/1704 2000 BCFG
BECMG 1705/1707 02010KT
BECMG 1712/1715 24010KT
BECMG 1720/1722 VRB05KT



MET'MAP, your aeronautical weather chart ! - Copyright ORBIFLY December 2007 - Disclaimer

ORBIFLY MET'MAP TEAM :

Programming & Development : Alexandra Zaïnal
Concept & original design : Baudouin d'Aumeries
Assistance for programming : Marc-Olivier Méhu
Technical & hardware support : Manuel Goepfert

Contact : metmap@orbifly.com




SOURCES & CREDITS :

   NOAA